createdAt,value
2019-02-17T00:00:53.731Z,22.00
2019-02-17T00:03:23.012Z,21.70
2019-02-17T00:05:52.307Z,22.20
2019-02-17T00:08:22.662Z,20.50
2019-02-17T00:10:51.956Z,21.33
2019-02-17T00:13:21.238Z,21.67
2019-02-17T00:15:50.533Z,22.17
2019-02-17T00:18:19.814Z,21.20
2019-02-17T00:20:49.112Z,21.90
2019-02-17T00:23:18.389Z,21.50
2019-02-17T00:25:47.695Z,23.00
2019-02-17T00:28:16.979Z,21.43
2019-02-17T00:30:46.265Z,21.97
2019-02-17T00:33:15.561Z,21.37
2019-02-17T00:35:44.850Z,20.97
2019-02-17T00:38:14.135Z,22.30
2019-02-17T00:40:43.434Z,21.83
2019-02-17T00:43:12.741Z,22.37
2019-02-17T00:45:42.013Z,22.20
2019-02-17T00:48:12.279Z,23.73
2019-02-17T00:50:41.583Z,22.63
2019-02-17T00:53:10.867Z,24.53
2019-02-17T00:55:40.148Z,24.63
2019-02-17T00:58:09.440Z,22.67
2019-02-17T01:00:38.742Z,23.03
2019-02-17T01:03:08.032Z,21.73
2019-02-17T01:05:37.310Z,22.20
2019-02-17T01:08:06.602Z,21.93
2019-02-17T01:10:35.885Z,22.60
2019-02-17T01:13:05.175Z,23.67
2019-02-17T01:15:34.461Z,22.57
2019-02-17T01:18:03.754Z,22.17
2019-02-17T01:20:33.036Z,24.17
2019-02-17T01:23:02.327Z,23.67
2019-02-17T01:25:31.603Z,22.77
2019-02-17T01:28:00.896Z,22.50
2019-02-17T01:30:30.184Z,25.03
2019-02-17T01:32:59.471Z,24.67
2019-02-17T01:35:28.828Z,24.73
2019-02-17T01:37:58.385Z,25.60
2019-02-17T01:40:27.683Z,23.93
2019-02-17T01:42:57.027Z,23.53
2019-02-17T01:45:26.311Z,24.27
2019-02-17T01:47:55.622Z,21.57
2019-02-17T01:50:24.896Z,23.70
2019-02-17T01:52:54.188Z,23.87
2019-02-17T01:55:23.458Z,23.37
2019-02-17T01:57:52.755Z,23.40
2019-02-17T02:00:22.036Z,24.17
2019-02-17T02:02:51.342Z,21.53
2019-02-17T02:05:20.614Z,20.80
2019-02-17T02:07:50.877Z,21.27
2019-02-17T02:10:20.163Z,19.20
2019-02-17T02:12:49.456Z,18.60
2019-02-17T02:15:18.739Z,19.53
2019-02-17T02:17:48.029Z,19.67
2019-02-17T02:20:17.314Z,19.67
2019-02-17T02:22:46.606Z,17.87
2019-02-17T02:25:15.893Z,18.67
2019-02-17T02:27:45.185Z,17.67
2019-02-17T02:30:14.553Z,19.30
2019-02-17T02:32:43.837Z,18.27
2019-02-17T02:35:13.120Z,18.87
2019-02-17T02:37:42.413Z,19.13
2019-02-17T02:40:11.694Z,19.87
2019-02-17T02:42:40.996Z,19.33
2019-02-17T02:45:10.825Z,20.63
2019-02-17T02:47:40.115Z,21.77
2019-02-17T02:50:11.386Z,22.13
2019-02-17T02:52:40.733Z,22.57
2019-02-17T02:55:11.085Z,23.70
2019-02-17T02:57:41.352Z,23.00
2019-02-17T03:00:12.273Z,23.40
2019-02-17T03:02:42.111Z,24.27
2019-02-17T03:05:11.406Z,25.23
2019-02-17T03:07:40.688Z,23.93
2019-02-17T03:10:10.347Z,24.90
2019-02-17T03:12:39.645Z,23.70
2019-02-17T03:15:09.391Z,24.97
2019-02-17T03:17:39.613Z,23.83
2019-02-17T03:20:09.833Z,23.37
2019-02-17T03:22:39.128Z,24.17
2019-02-17T03:25:08.692Z,24.87
2019-02-17T03:27:37.975Z,24.50
2019-02-17T03:30:11.043Z,25.30
2019-02-17T03:32:40.337Z,24.80
2019-02-17T03:35:09.625Z,24.50
2019-02-17T03:37:38.921Z,24.23
2019-02-17T03:40:09.250Z,25.03
2019-02-17T03:42:38.535Z,23.47
2019-02-17T03:45:09.762Z,25.60
2019-02-17T03:47:39.047Z,24.37
2019-02-17T03:50:08.343Z,23.90
2019-02-17T03:52:37.627Z,23.47
2019-02-17T03:55:06.923Z,24.07
2019-02-17T03:57:36.216Z,22.90
2019-02-17T04:00:16.367Z,23.13
2019-02-17T04:02:38.336Z,24.53
2019-02-17T04:05:07.712Z,24.20
2019-02-17T04:07:37.009Z,25.40
2019-02-17T04:10:07.249Z,24.80
2019-02-17T04:12:36.531Z,23.50
2019-02-17T04:15:06.869Z,24.63
2019-02-17T04:17:36.154Z,24.13
2019-02-17T04:20:07.101Z,23.00
2019-02-17T04:22:36.385Z,25.50
2019-02-17T04:25:06.227Z,25.67
2019-02-17T04:27:35.522Z,25.77
2019-02-17T04:30:06.631Z,25.43
2019-02-17T04:32:35.924Z,26.00
2019-02-17T04:35:05.496Z,26.37
2019-02-17T04:37:34.783Z,26.57
2019-02-17T04:40:04.825Z,25.00
2019-02-17T04:42:34.116Z,26.30
2019-02-17T04:45:03.429Z,25.80
2019-02-17T04:47:33.687Z,25.20
2019-02-17T04:50:02.983Z,25.43
2019-02-17T04:52:32.267Z,26.80
2019-02-17T04:55:01.563Z,26.97
2019-02-17T04:57:30.855Z,26.27
2019-02-17T05:00:00.318Z,25.30
2019-02-17T05:02:29.619Z,25.67
2019-02-17T05:04:58.919Z,25.47
2019-02-17T05:07:28.222Z,24.97
2019-02-17T05:09:57.501Z,25.57
2019-02-17T05:12:26.785Z,24.97
2019-02-17T05:14:56.079Z,26.13
2019-02-17T05:17:25.364Z,25.60
2019-02-17T05:19:54.662Z,26.03
2019-02-17T05:22:23.951Z,25.80
2019-02-17T05:24:53.258Z,24.53
2019-02-17T05:27:22.553Z,26.37
2019-02-17T05:29:51.843Z,26.03
2019-02-17T05:32:21.140Z,24.73
2019-02-17T05:34:50.428Z,27.23
2019-02-17T05:37:19.734Z,26.73
2019-02-17T05:39:49.032Z,27.23
2019-02-17T05:42:18.329Z,24.77
2019-02-17T05:44:47.625Z,25.63
2019-02-17T05:47:16.987Z,25.60
2019-02-17T05:49:46.289Z,25.77
2019-02-17T05:52:15.566Z,26.47
2019-02-17T05:54:44.854Z,25.63
2019-02-17T05:57:14.163Z,25.70
2019-02-17T05:59:43.450Z,25.93
2019-02-17T06:02:12.750Z,25.30
2019-02-17T06:04:42.036Z,26.73
2019-02-17T06:07:11.337Z,25.50
2019-02-17T06:09:40.627Z,26.07
2019-02-17T06:12:09.957Z,26.67
2019-02-17T06:14:39.244Z,25.67
2019-02-17T06:17:08.546Z,25.90
2019-02-17T06:19:37.835Z,28.07
2019-02-17T06:22:07.136Z,27.10
2019-02-17T06:24:36.420Z,27.40
2019-02-17T06:27:05.722Z,27.83
2019-02-17T06:29:35.090Z,25.37
2019-02-17T06:32:04.402Z,26.20
2019-02-17T06:34:33.695Z,26.33
2019-02-17T06:37:02.999Z,26.30
2019-02-17T06:39:32.291Z,25.63
2019-02-17T06:42:01.607Z,26.07
2019-02-17T06:44:30.897Z,25.07
2019-02-17T06:47:01.064Z,25.87
2019-02-17T06:49:30.351Z,24.90
2019-02-17T06:51:59.650Z,24.37
2019-02-17T06:54:28.944Z,25.07
2019-02-17T06:57:02.810Z,25.83
2019-02-17T06:59:32.094Z,25.67
2019-02-17T07:02:01.397Z,24.73
2019-02-17T07:04:38.324Z,24.33
2019-02-17T07:07:07.699Z,25.83
2019-02-17T07:09:36.998Z,24.43
2019-02-17T07:12:06.301Z,23.67
2019-02-17T07:14:35.580Z,22.93
2019-02-17T07:17:04.894Z,24.33
2019-02-17T07:19:34.191Z,25.13
2019-02-17T07:22:03.485Z,25.13
2019-02-17T07:24:32.779Z,24.10
2019-02-17T07:27:02.058Z,24.77
2019-02-17T07:29:31.364Z,23.70
2019-02-17T07:32:00.646Z,23.90
2019-02-17T07:34:29.940Z,23.20
2019-02-17T07:36:59.230Z,23.67
2019-02-17T07:39:28.596Z,22.83
2019-02-17T07:41:57.905Z,24.50
2019-02-17T07:44:27.226Z,23.73
2019-02-17T07:46:56.509Z,22.67
2019-02-17T07:49:25.837Z,23.20
2019-02-17T07:51:55.182Z,24.37
2019-02-17T07:54:24.551Z,24.03
2019-02-17T07:56:53.846Z,23.00
2019-02-17T07:59:23.199Z,24.70
2019-02-17T08:01:52.470Z,23.67
2019-02-17T08:04:21.821Z,24.33
2019-02-17T08:06:51.144Z,24.17
2019-02-17T08:09:20.483Z,24.80
2019-02-17T08:11:49.822Z,23.80
2019-02-17T08:14:19.110Z,24.80
2019-02-17T08:16:48.391Z,24.20
2019-02-17T08:19:17.687Z,23.90
2019-02-17T08:21:46.983Z,23.53
2019-02-17T08:24:16.268Z,22.43
2019-02-17T08:26:45.559Z,22.47
2019-02-17T08:29:14.863Z,22.17
2019-02-17T08:31:44.143Z,22.10
2019-02-17T08:34:13.456Z,21.37
2019-02-17T08:36:42.764Z,20.87
2019-02-17T08:39:12.050Z,20.47
2019-02-17T08:41:41.331Z,20.83
2019-02-17T08:44:10.638Z,20.20
2019-02-17T08:46:39.922Z,20.90
2019-02-17T08:49:09.211Z,20.33
2019-02-17T08:51:38.499Z,20.93
2019-02-17T08:54:07.799Z,20.90
2019-02-17T08:56:37.092Z,21.80
2019-02-17T08:59:06.375Z,20.60
2019-02-17T09:01:35.668Z,21.73
2019-02-17T09:04:04.959Z,20.30
2019-02-17T09:06:34.247Z,20.53
2019-02-17T09:09:05.385Z,21.47
2019-02-17T09:11:35.349Z,20.20
2019-02-17T09:14:04.669Z,20.77
2019-02-17T09:16:33.946Z,20.83
2019-02-17T09:19:03.249Z,21.77
2019-02-17T09:21:32.534Z,21.73
2019-02-17T09:24:01.832Z,20.97
2019-02-17T09:26:31.134Z,21.43
2019-02-17T09:29:00.498Z,22.40
2019-02-17T09:31:29.777Z,20.97
2019-02-17T09:34:00.260Z,21.10
2019-02-17T09:36:29.550Z,21.70
2019-02-17T09:38:58.855Z,20.50
2019-02-17T09:41:28.142Z,21.40
2019-02-17T09:43:58.617Z,21.63
2019-02-17T09:46:27.916Z,21.00
2019-02-17T09:48:57.217Z,22.60
2019-02-17T09:51:26.532Z,22.20
2019-02-17T09:53:55.885Z,21.77
2019-02-17T09:56:25.172Z,21.33
2019-02-17T09:58:54.463Z,22.40
2019-02-17T10:01:23.771Z,21.77
2019-02-17T10:03:53.078Z,22.07
2019-02-17T10:06:22.366Z,22.73
2019-02-17T10:08:51.652Z,22.40
2019-02-17T10:11:23.536Z,21.40
2019-02-17T10:13:52.830Z,21.77
2019-02-17T10:16:22.136Z,22.27
2019-02-17T10:18:51.491Z,21.63
2019-02-17T10:21:20.791Z,21.47
2019-02-17T10:23:50.105Z,21.70
2019-02-17T10:26:19.407Z,23.60
2019-02-17T10:28:48.708Z,21.67
2019-02-17T10:31:18.088Z,23.43
2019-02-17T10:33:47.366Z,21.90
2019-02-17T10:36:16.672Z,22.70
2019-02-17T10:38:46.027Z,24.27
2019-02-17T10:41:15.324Z,23.43
2019-02-17T10:43:44.615Z,22.17
2019-02-17T10:46:13.981Z,22.30
2019-02-17T10:48:43.283Z,22.87
2019-02-17T10:51:12.576Z,21.57
2019-02-17T10:53:41.871Z,22.30
2019-02-17T10:56:11.178Z,22.20
2019-02-17T10:58:40.467Z,22.83
2019-02-17T11:01:09.773Z,22.33
2019-02-17T11:03:39.067Z,22.70
2019-02-17T11:06:08.379Z,22.73
2019-02-17T11:08:37.748Z,22.53
2019-02-17T11:11:07.109Z,22.40
2019-02-17T11:13:36.413Z,22.87
2019-02-17T11:16:06.673Z,22.70
2019-02-17T11:18:35.947Z,21.30
2019-02-17T11:21:05.238Z,23.17
2019-02-17T11:23:34.538Z,22.80
2019-02-17T11:26:03.826Z,21.73
2019-02-17T11:28:33.120Z,22.50
2019-02-17T11:31:02.490Z,22.20
2019-02-17T11:33:31.799Z,21.77
2019-02-17T11:36:01.111Z,23.27
2019-02-17T11:38:30.404Z,22.80
2019-02-17T11:40:59.700Z,22.30
2019-02-17T11:43:29.004Z,22.87
2019-02-17T11:45:58.288Z,21.40
2019-02-17T11:48:27.596Z,21.13
2019-02-17T11:50:56.891Z,21.73
2019-02-17T11:53:26.194Z,21.73
2019-02-17T11:55:55.483Z,21.83
2019-02-17T11:58:24.791Z,22.07
2019-02-17T12:00:54.083Z,21.73
2019-02-17T12:03:23.391Z,22.20
2019-02-17T12:05:52.680Z,22.47
2019-02-17T12:08:21.979Z,22.03
2019-02-17T12:10:51.267Z,22.37
2019-02-17T12:13:20.579Z,22.03
2019-02-17T12:15:49.867Z,22.37
2019-02-17T12:18:19.172Z,20.70
2019-02-17T12:20:50.106Z,19.70
2019-02-17T12:23:26.761Z,21.87
2019-02-17T12:25:57.702Z,20.77
2019-02-17T12:28:44.920Z,21.20
2019-02-17T12:31:15.839Z,21.97
2019-02-17T12:33:45.134Z,22.00
2019-02-17T12:36:14.423Z,21.40
2019-02-17T12:38:43.723Z,20.90
2019-02-17T12:41:13.022Z,23.50
2019-02-17T12:43:42.318Z,21.42
2019-02-17T12:46:11.603Z,21.48
2019-02-17T12:48:40.904Z,21.60
2019-02-17T12:51:10.194Z,21.02
2019-02-17T12:53:39.504Z,22.05
2019-02-17T12:56:08.799Z,21.50
2019-02-17T12:58:38.103Z,21.93
2019-02-17T13:01:07.399Z,21.82
2019-02-17T13:03:36.706Z,20.65
2019-02-17T13:06:06.015Z,21.57
2019-02-17T13:08:35.326Z,20.90
2019-02-17T13:11:06.254Z,20.27
2019-02-17T13:13:35.557Z,20.82
2019-02-17T13:16:05.815Z,18.90
2019-02-17T13:18:35.119Z,20.72
2019-02-17T13:21:04.424Z,19.12
2019-02-17T13:23:35.367Z,20.32
2019-02-17T13:26:08.693Z,20.08
2019-02-17T13:28:39.310Z,19.77
2019-02-17T13:31:08.584Z,20.35
2019-02-17T13:33:39.459Z,18.42
2019-02-17T13:36:08.859Z,19.10
2019-02-17T13:38:38.167Z,19.07
2019-02-17T13:41:07.505Z,18.35
2019-02-17T13:43:36.800Z,19.80
2019-02-17T13:46:06.086Z,19.10
2019-02-17T13:48:35.391Z,17.57
2019-02-17T13:51:04.677Z,17.87
2019-02-17T13:53:33.983Z,18.37
2019-02-17T13:56:03.270Z,18.62
2019-02-17T13:58:33.573Z,18.30
2019-02-17T14:01:02.882Z,18.12
2019-02-17T14:03:32.184Z,16.55
2019-02-17T14:06:01.466Z,17.10
2019-02-17T14:08:31.355Z,17.85
2019-02-17T14:11:00.811Z,17.52
2019-02-17T14:13:30.113Z,16.93
2019-02-17T14:15:59.408Z,15.40
2019-02-17T14:18:28.702Z,16.12
2019-02-17T14:20:57.995Z,17.10
2019-02-17T14:23:27.317Z,15.25
2019-02-17T14:25:56.660Z,16.17
2019-02-17T14:28:26.044Z,15.38
2019-02-17T14:30:55.331Z,16.62
2019-02-17T14:33:24.631Z,15.87
2019-02-17T14:35:53.965Z,16.70
2019-02-17T14:38:23.262Z,17.00
2019-02-17T14:40:52.552Z,16.63
2019-02-17T14:43:21.890Z,15.80
2019-02-17T14:45:51.184Z,16.37
2019-02-17T14:48:20.478Z,15.70
2019-02-17T14:50:49.780Z,16.03
2019-02-17T14:53:19.270Z,17.42
2019-02-17T14:55:52.676Z,16.60
2019-02-17T14:58:42.393Z,16.17
2019-02-17T15:01:12.529Z,15.87
2019-02-17T15:03:42.827Z,17.23
2019-02-17T15:06:14.474Z,17.33
2019-02-17T15:08:43.790Z,17.57
2019-02-17T15:11:13.354Z,16.33
2019-02-17T15:13:43.048Z,17.00
2019-02-17T15:16:12.427Z,18.13
2019-02-17T15:18:42.628Z,16.63
2019-02-17T15:21:12.197Z,17.23
2019-02-17T15:23:41.804Z,17.23
2019-02-17T15:26:11.985Z,17.73
2019-02-17T15:28:50.314Z,17.90
2019-02-17T15:31:13.367Z,17.30
2019-02-17T15:33:44.383Z,17.37
2019-02-17T15:36:13.679Z,17.13
2019-02-17T15:38:43.916Z,17.20
2019-02-17T15:41:13.230Z,16.37
2019-02-17T15:43:42.507Z,17.37
2019-02-17T15:46:13.239Z,17.03
2019-02-17T15:48:42.666Z,17.97
2019-02-17T15:51:11.962Z,17.53
2019-02-17T15:53:41.258Z,17.33
2019-02-17T15:56:10.559Z,16.63
2019-02-17T15:58:39.846Z,17.90
2019-02-17T16:01:09.151Z,17.13
2019-02-17T16:03:38.454Z,16.80
2019-02-17T16:06:07.748Z,17.10
2019-02-17T16:08:37.038Z,16.23
2019-02-17T16:11:06.514Z,16.13
2019-02-17T16:13:35.803Z,16.50
2019-02-17T16:16:05.113Z,16.50
2019-02-17T16:18:34.409Z,19.17
2019-02-17T16:21:03.796Z,18.07
2019-02-17T16:23:33.220Z,18.47
2019-02-17T16:26:02.503Z,18.60
2019-02-17T16:28:31.796Z,19.47
2019-02-17T16:31:01.092Z,18.87
2019-02-17T16:33:30.383Z,18.07
2019-02-17T16:35:59.696Z,17.43
2019-02-17T16:38:28.976Z,17.67
2019-02-17T16:40:58.292Z,17.27
2019-02-17T16:43:27.575Z,17.97
2019-02-17T16:45:56.886Z,18.27
2019-02-17T16:48:26.182Z,18.53
2019-02-17T16:50:55.480Z,18.60
2019-02-17T16:53:24.766Z,18.90
2019-02-17T16:55:54.076Z,19.17
2019-02-17T16:58:23.376Z,18.13
2019-02-17T17:00:52.696Z,19.17
2019-02-17T17:03:21.993Z,18.73
2019-02-17T17:05:51.296Z,16.07
2019-02-17T17:08:39.932Z,16.00
2019-02-17T17:11:09.231Z,14.97
2019-02-17T17:13:38.570Z,17.17
2019-02-17T17:16:07.898Z,15.63
2019-02-17T17:18:37.200Z,16.37
2019-02-17T17:21:06.494Z,20.63
2019-02-17T17:23:35.810Z,18.90
2019-02-17T17:26:05.270Z,17.63
2019-02-17T17:28:36.176Z,17.23
2019-02-17T17:31:05.475Z,15.83
2019-02-17T17:33:34.785Z,15.47
2019-02-17T17:36:04.078Z,17.83
2019-02-17T17:38:33.367Z,21.60
2019-02-17T17:41:04.238Z,21.20
2019-02-17T17:43:33.529Z,21.83
2019-02-17T17:46:02.828Z,24.27
2019-02-17T17:48:33.291Z,20.07
2019-02-17T17:51:02.583Z,19.77
2019-02-17T17:53:31.866Z,20.83
2019-02-17T17:56:01.167Z,22.03
2019-02-17T17:58:30.511Z,20.87
2019-02-17T18:00:59.821Z,20.27
2019-02-17T18:03:29.164Z,19.60
2019-02-17T18:05:58.448Z,21.20
2019-02-17T18:08:27.750Z,22.50
2019-02-17T18:10:57.043Z,23.87
2019-02-17T18:13:26.401Z,23.97
2019-02-17T18:15:55.682Z,22.17
2019-02-17T18:18:28.415Z,22.63
2019-02-17T18:20:57.688Z,21.40
2019-02-17T18:23:27.049Z,20.90
2019-02-17T18:25:56.528Z,21.37
2019-02-17T18:28:26.012Z,20.73
2019-02-17T18:30:55.292Z,20.00
2019-02-17T18:33:24.580Z,20.47
2019-02-17T18:35:53.865Z,20.00
2019-02-17T18:38:23.155Z,19.20
2019-02-17T18:40:52.480Z,19.83
2019-02-17T18:43:21.780Z,19.07
2019-02-17T18:45:51.064Z,19.23
2019-02-17T18:48:20.353Z,19.80
2019-02-17T18:50:58.765Z,19.27
2019-02-17T18:53:20.626Z,19.53
2019-02-17T18:55:49.908Z,19.77
2019-02-17T18:58:31.444Z,19.60
2019-02-17T19:01:00.750Z,21.17
2019-02-17T19:03:31.315Z,22.30
2019-02-17T19:06:00.603Z,23.10
2019-02-17T19:08:29.894Z,23.27
2019-02-17T19:10:59.178Z,23.40
2019-02-17T19:13:28.478Z,23.07
2019-02-17T19:15:57.760Z,22.67
2019-02-17T19:18:27.055Z,22.33
2019-02-17T19:20:56.340Z,20.90
2019-02-17T19:23:25.662Z,21.30
2019-02-17T19:25:54.928Z,18.87
2019-02-17T19:28:24.223Z,22.27
2019-02-17T19:30:53.511Z,20.97
2019-02-17T19:33:22.804Z,21.50
2019-02-17T19:35:52.130Z,21.10
2019-02-17T19:38:23.255Z,20.83
2019-02-17T19:40:55.722Z,22.10
2019-02-17T19:49:50.741Z,22.47
2019-02-17T19:52:20.034Z,22.27
2019-02-17T19:54:49.326Z,23.00
2019-02-17T19:57:18.684Z,24.53
2019-02-17T19:59:47.976Z,23.47
2019-02-17T20:02:18.925Z,23.53
2019-02-17T20:04:48.483Z,24.07
2019-02-17T20:07:17.776Z,25.13
2019-02-17T20:09:47.063Z,25.67
2019-02-17T20:12:16.355Z,25.87
2019-02-17T20:14:45.645Z,25.70
2019-02-17T20:17:14.927Z,24.93
2019-02-17T20:19:44.231Z,25.23
2019-02-17T20:22:13.520Z,24.27
2019-02-17T20:24:42.810Z,24.90
2019-02-17T20:27:12.097Z,25.70
2019-02-17T20:29:41.388Z,25.57
2019-02-17T20:32:10.671Z,25.57
2019-02-17T20:34:39.964Z,25.57
2019-02-17T20:37:09.253Z,26.07
2019-02-17T20:39:38.547Z,26.13
2019-02-17T20:42:07.834Z,27.03
2019-02-17T20:44:37.127Z,26.33
2019-02-17T20:47:06.414Z,25.73
2019-02-17T20:49:35.732Z,26.63
2019-02-17T20:52:05.002Z,25.77
2019-02-17T20:54:34.291Z,26.87
2019-02-17T20:57:03.752Z,28.60
2019-02-17T20:59:33.041Z,25.93
2019-02-17T21:02:02.343Z,28.00
2019-02-17T21:04:31.631Z,26.20
2019-02-17T21:07:00.917Z,25.13
2019-02-17T21:09:30.211Z,26.07
2019-02-17T21:11:59.528Z,25.07
2019-02-17T21:14:28.819Z,25.67
2019-02-17T21:16:58.100Z,24.57
2019-02-17T21:19:27.473Z,24.90
2019-02-17T21:21:56.754Z,25.00
2019-02-17T21:24:26.055Z,24.40
2019-02-17T21:26:55.338Z,24.37
2019-02-17T21:29:24.631Z,22.93
2019-02-17T21:31:53.939Z,23.43
2019-02-17T21:34:23.233Z,24.00
2019-02-17T21:36:52.539Z,24.47
2019-02-17T21:39:21.851Z,24.77
2019-02-17T21:41:51.132Z,23.13
2019-02-17T21:44:20.436Z,23.13
2019-02-17T21:46:49.719Z,23.83
2019-02-17T21:49:19.015Z,24.53
2019-02-17T21:51:48.291Z,23.17
2019-02-17T21:54:17.611Z,24.80
2019-02-17T21:56:47.005Z,26.10
2019-02-17T21:59:16.288Z,25.33
2019-02-17T22:01:45.584Z,24.73
2019-02-17T22:04:14.876Z,24.93
2019-02-17T22:06:44.239Z,24.47
2019-02-17T22:09:13.540Z,21.50
2019-02-17T22:11:42.816Z,23.67
2019-02-17T22:14:12.129Z,24.60
2019-02-17T22:16:41.482Z,25.33
2019-02-17T22:19:10.939Z,25.63
2019-02-17T22:21:40.272Z,33.77
2019-02-17T22:24:09.539Z,28.10
2019-02-17T22:26:38.824Z,30.77
2019-02-17T22:29:08.129Z,28.80
2019-02-17T22:31:37.663Z,27.17
2019-02-17T22:34:07.031Z,28.10
2019-02-17T22:36:43.494Z,26.47
2019-02-17T22:39:07.313Z,26.33
2019-02-17T22:41:36.667Z,28.10
2019-02-17T22:44:05.964Z,33.27
2019-02-17T22:46:35.247Z,34.80
2019-02-17T22:49:07.919Z,33.37
2019-02-17T22:51:37.213Z,33.03
2019-02-17T22:54:06.515Z,32.07
2019-02-17T22:56:36.038Z,28.27
2019-02-17T22:59:05.343Z,29.60
2019-02-17T23:01:34.862Z,30.13
2019-02-17T23:04:04.622Z,28.83
2019-02-17T23:06:34.083Z,29.57
2019-02-17T23:09:04.809Z,27.63
2019-02-17T23:11:35.652Z,27.93
2019-02-17T23:14:05.014Z,26.83
2019-02-17T23:16:34.295Z,29.13
2019-02-17T23:19:03.587Z,28.27
2019-02-17T23:21:32.884Z,27.17
2019-02-17T23:24:02.236Z,28.60
2019-02-17T23:26:31.535Z,26.83
2019-02-17T23:29:00.814Z,26.77
2019-02-17T23:31:30.111Z,26.33
2019-02-17T23:33:59.399Z,27.23
2019-02-17T23:36:28.719Z,27.73
2019-02-17T23:38:58.002Z,27.77
2019-02-17T23:41:27.298Z,26.57
2019-02-17T23:43:56.660Z,28.60
2019-02-17T23:46:25.957Z,27.27
2019-02-17T23:48:55.230Z,26.77
2019-02-17T23:51:24.540Z,27.13
2019-02-17T23:53:53.807Z,28.23
2019-02-17T23:56:23.107Z,28.07
2019-02-17T23:58:52.479Z,26.30
